Lisbon, NY

6:49 PM EDT on September 02, 2014 (GMT -0400)
Waddington, NY | Change Station
CLOSE
Current Station
Personal Weather Station
Location: Lisbon, NY
Elevation: 325 ft
Nearby Weather Stations

Elev 325 ft 44.80 °N, 75.24 °W | Updated 4 minutes ago

Mostly Cloudy
Mostly Cloudy
67.0 °F
Feels Like 67.0 °F
N
0.0
Wind Variable Wind from WSW
Gusts 5.0 mph

Today
High -- | Low -- °F
--% Chance of Precip.
Yesterday
High -- | Low -- °F
Precip. -- in
6:24 AM 7:36 PM
First Quarter, 55% visible
Pressure 29.76 in
Visibility 10.0 miles
Clouds Few 2300 ft
Mostly Cloudy 3000 ft
Overcast 11000 ft
Dew Point 62 °F
Humidity 84%
Rainfall 0.09 in
Snow Depth Not available.
UV 0 out of 12
Pollen 4.10 out of 12
Air Quality Not available.
Flu Activity Not available.
SPECI KMSS 022200Z AUTO 32011G19KT 10SM -RA FEW023 BKN030 OVC110 21/18 A2976 RMK AO2 WSHFT 2146 P0000 T02110183

More Conditions Fewer Conditions

Pressure 29.76 in
Visibility 10.0 miles
Clouds Few 2300 ft
Mostly Cloudy 3000 ft
Overcast 11000 ft
Dew Point 62 °F
Humidity 84%
Rainfall 0.09 in
Snow Depth Not available.
UV 0 out of 12
Pollen 4.10 out of 12
Air Quality Not available.
Flu Activity Not available.
SPECI KMSS 022200Z AUTO 32011G19KT 10SM -RA FEW023 BKN030 OVC110 21/18 A2976 RMK AO2 WSHFT 2146 P0000 T02110183

More Conditions Fewer Conditions

10-Day Weather Forecast

Almanac

Astronomy

Sep. 02, 2014 Rise Set
Actual Time 6:24 AM EDT 7:36 PM EDT
Civil Twilight 5:54 AM EDT 8:06 PM EDT
Nautical Twilight 5:18 AM EDT 8:42 PM EDT
Astronomical Twilight 4:40 AM EDT 9:20 PM EDT
Moon 2:24 PM EDT No Moon Set
Length of Visible Light 14h 11m
Length of Day
13h 11m
Tomorrow will be 3m 0s shorter.
First Quarter, 55% of the Moon is Illuminated
Today
First Quarter
Sep 8
Full
Sep 15
Last Quarter
Sep 24
New
Oct 1
First Quarter

Today's Extremes

State Highs State Lows

Community

WunderPhotos

Upload Photos

1,749,791 photos uploaded!

Nearby

Air Quality

  Air Quality AQ Index Pollutant
Tuesday Good
PM2.5
Tuesday Good
OZONE
Wednesday Good
OZONE
Wednesday Good
PM2.5

Snow Depth

Station Depth Elevation
No new snow has been reported.

Earthquake Activity

City Distance Mag. Time & Date
No recent earthquake activity has been reported nearby.
Minimum magnitude displayed is 2.5.

Coastal Water Temperatures

Place Temperature
Ogdensburg, NY 66.0 °F
Alexandria Bay, NY 69.1 °F

Nearby Weather Stations